Time;durP1;ratioP1;P1;durP2;ratioP2;P2;SDS_P1;SDS_P2;PMS_P1;PMS_P2;Temp;Humidity;BMP_temperature;BMP_pressure;BME280_temperature;BME280_humidity;BME280_pressure;Samples;Min_cycle;Max_cycle;Signal;HPM_P1;HPM_P2
2021/07/22 00:00:55;;;;;;;;;;;;;;;;;;333759;107;2037651;-73
2021/07/22 00:02:06;;;;;;;;;;;;;;;;;;397989;104;1961034;-74
2021/07/22 00:03:11;;;;;;;;;;;;;;;;;;380313;107;1959819;-74
2021/07/22 00:04:16;;;;;;;;;;;;;;;;;;372404;108;1959933;-74
2021/07/22 00:05:21;;;;;;;;;;;;;;;;;;361602;108;1960052;-73
2021/07/22 00:06:26;;;;;;;;;;;;;;;;;;320783;110;2024790;-73
2021/07/22 00:07:31;;;;;;;;;;;;;;;;;;338496;110;2405942;-73
2021/07/22 00:08:36;;;;;;;;;;;;;;;;;;297665;110;2264043;-73
2021/07/22 00:09:41;;;;;;;;;;;;;;;;;;299477;112;2325015;-74
2021/07/22 00:10:47;;;;;;;;;;;;;;;;;;366562;109;1959883;-73
2021/07/22 00:11:52;;;;;;;;;;;;;;;;;;363220;109;1959996;-73
2021/07/22 00:12:57;;;;;;;;;;;;;;;;;;324094;109;2011917;-72
2021/07/22 00:14:02;;;;;;;;;;;;;;;;;;338041;111;2424984;-71
2021/07/22 00:15:07;;;;;;;;;;;;;;;;;;334985;111;2439062;-73
2021/07/22 00:16:19;;;;;;;;;;;;;;;;;;390664;106;1959928;-71
2021/07/22 00:17:24;;;;;;;;;;;;;;;;;;370954;107;1959907;-72
2021/07/22 00:18:30;;;;;;;;;;;;;;;;;;369776;108;1959943;-73
2021/07/22 00:19:34;;;;;;;;;;;;;;;;;;373086;109;1960006;-74
2021/07/22 00:20:46;;;;;;;;;;;;;;;;;;397137;104;1959952;-74
2021/07/22 00:21:50;;;;;;;;;;;;;;;;;;381651;107;1959909;-73
2021/07/22 00:22:55;;;;;;;;;;;;;;;;;;380329;107;1959958;-73
2021/07/22 00:24:00;;;;;;;;;;;;;;;;;;379700;107;1960073;-73
2021/07/22 00:25:04;;;;;;;;;;;;;;;;;;375610;107;1961009;-74
2021/07/22 00:26:09;;;;;;;;;;;;;;;;;;371558;108;1959940;-74
2021/07/22 00:27:14;;;;;;;;;;;;;;;;;;332227;108;1960916;-74
2021/07/22 00:28:19;;;;;;;;;;;;;;;;;;320335;108;2069983;-72
2021/07/22 00:29:30;;;;;;;;;;;;;;;;;;367236;108;1960073;-73
2021/07/22 00:30:32;;;;;;;;;;;;;;;;;;357915;112;1959934;-72
2021/07/22 00:31:36;;;;;;;;;;;;;;;;;;360439;110;1960003;-73
2021/07/22 00:32:43;;;;;;;;;;;;;;;;;;370771;108;1959972;-72
2021/07/22 00:33:49;;;;;;;;;;;;;;;;;;369662;109;1959932;-73
2021/07/22 00:34:54;;;;;;;;;;;;;;;;;;371503;108;1960068;-72
2021/07/22 00:35:59;;;;;;;;;;;;;;;;;;369431;108;1960008;-73
2021/07/22 00:37:04;;;;;;;;;;;;;;;;;;372741;108;1961035;-72
2021/07/22 00:38:09;;;;;;;;;;;;;;;;;;372311;108;1960097;-73
2021/07/22 00:39:16;;;;;;;;;;;;;;;;;;370855;108;1960954;-73
2021/07/22 00:40:23;;;;;;;;;;;;;;;;;;370947;108;1961093;-74
2021/07/22 00:41:35;;;;;;;;;;;;;;;;;;378370;109;1959941;-74
2021/07/22 00:42:40;;;;;;;;;;;;;;;;;;353548;113;1960900;-73
2021/07/22 00:43:45;;;;;;;;;;;;;;;;;;349570;115;1962049;-73
2021/07/22 00:44:50;;;;;;;;;;;;;;;;;;353705;111;1960024;-72
2021/07/22 00:45:55;;;;;;;;;;;;;;;;;;366810;109;1959936;-72
2021/07/22 00:47:07;;;;;;;;;;;;;;;;;;344048;106;2115072;-72
2021/07/22 00:48:12;;;;;;;;;;;;;;;;;;305820;107;2266934;-72
2021/07/22 00:49:17;;;;;;;;;;;;;;;;;;346551;107;2433939;-72
2021/07/22 00:50:22;;;;;;;;;;;;;;;;;;347400;107;1960023;-73
2021/07/22 00:51:27;;;;;;;;;;;;;;;;;;330778;107;1990976;-73
2021/07/22 00:52:32;;;;;;;;;;;;;;;;;;339090;109;2463038;-73
2021/07/22 00:53:38;;;;;;;;;;;;;;;;;;350615;109;1959968;-73
2021/07/22 00:54:43;;;;;;;;;;;;;;;;;;343184;109;1959762;-74
2021/07/22 00:55:48;;;;;;;;;;;;;;;;;;371043;109;1959919;-73
2021/07/22 00:56:53;;;;;;;;;;;;;;;;;;365572;107;1960961;-72
2021/07/22 00:57:58;;;;;;;;;;;;;;;;;;333777;109;1973998;-73
2021/07/22 00:59:04;;;;;;;;;;;;;;;;;;361675;111;1964976;-72
2021/07/22 01:00:09;;;;;;;;;;;;;;;;;;364664;109;1960052;-73
2021/07/22 01:01:14;;;;;;;;;;;;;;;;;;367150;109;1960960;-72
2021/07/22 01:02:20;;;;;;;;;;;;;;;;;;374676;109;1959927;-73
2021/07/22 01:03:24;;;;;;;;;;;;;;;;;;370225;109;1960758;-73
2021/07/22 01:04:29;;;;;;;;;;;;;;;;;;353352;107;1958868;-72
2021/07/22 01:05:34;;;;;;;;;;;;;;;;;;297095;109;2305951;-72
2021/07/22 01:06:40;;;;;;;;;;;;;;;;;;369985;107;1959748;-71
2021/07/22 01:07:47;;;;;;;;;;;;;;;;;;373182;108;1960086;-73
2021/07/22 01:08:51;;;;;;;;;;;;;;;;;;365147;110;1959927;-71
2021/07/22 01:10:02;;;;;;;;;;;;;;;;;;399869;104;1959999;-72
2021/07/22 01:11:07;;;;;;;;;;;;;;;;;;382261;105;1958878;-72
2021/07/22 01:12:12;;;;;;;;;;;;;;;;;;382657;106;1959990;-73
2021/07/22 01:13:16;;;;;;;;;;;;;;;;;;382430;106;1961230;-73
2021/07/22 01:14:21;;;;;;;;;;;;;;;;;;381007;106;1961130;-72
2021/07/22 01:15:26;;;;;;;;;;;;;;;;;;371181;106;1960018;-72
2021/07/22 01:16:31;;;;;;;;;;;;;;;;;;340274;106;1988986;-72
2021/07/22 01:17:36;;;;;;;;;;;;;;;;;;311909;106;2247002;-72
2021/07/22 01:18:41;;;;;;;;;;;;;;;;;;362257;106;1959879;-71
2021/07/22 01:19:46;;;;;;;;;;;;;;;;;;353290;106;1960036;-72
2021/07/22 01:20:57;;;;;;;;;;;;;;;;;;376889;110;1959955;-72
2021/07/22 01:22:02;;;;;;;;;;;;;;;;;;352977;113;1960078;-72
2021/07/22 01:23:07;;;;;;;;;;;;;;;;;;334024;114;1960839;-73
2021/07/22 01:24:13;;;;;;;;;;;;;;;;;;358089;111;1959938;-72
2021/07/22 01:25:29;;;;;;;;;;;;;;;;;;310857;111;2118038;-72
2021/07/22 01:26:34;;;;;;;;;;;;;;;;;;365179;111;1959976;-72
2021/07/22 01:27:41;;;;;;;;;;;;;;;;;;363602;111;1961077;-72
2021/07/22 01:28:48;;;;;;;;;;;;;;;;;;342752;109;1961033;-72
2021/07/22 01:29:53;;;;;;;;;;;;;;;;;;332665;111;1960945;-71
2021/07/22 01:30:58;;;;;;;;;;;;;;;;;;330608;111;1960153;-72
2021/07/22 01:32:03;;;;;;;;;;;;;;;;;;318753;111;2056964;-71
2021/07/22 01:33:15;;;;;;;;;;;;;;;;;;394290;106;1959995;-73
2021/07/22 01:34:19;;;;;;;;;;;;;;;;;;370458;109;1959943;-73
2021/07/22 01:35:24;;;;;;;;;;;;;;;;;;362606;109;1960067;-71
2021/07/22 01:36:36;;;;;;;;;;;;;;;;;;395887;103;1960910;-72
2021/07/22 01:37:41;;;;;;;;;;;;;;;;;;376656;107;1960036;-71
2021/07/22 01:38:48;;;;;;;;;;;;;;;;;;380832;105;1960016;-71
2021/07/22 01:39:53;;;;;;;;;;;;;;;;;;377459;105;1960009;-71
2021/07/22 01:40:58;;;;;;;;;;;;;;;;;;365416;109;1960985;-72
2021/07/22 01:42:09;;;;;;;;;;;;;;;;;;345887;104;2111993;-71
2021/07/22 01:43:15;;;;;;;;;;;;;;;;;;379877;106;1961017;-72
2021/07/22 01:44:22;;;;;;;;;;;;;;;;;;378351;107;1961076;-72
2021/07/22 01:45:27;;;;;;;;;;;;;;;;;;373801;108;1960049;-70
2021/07/22 01:46:32;;;;;;;;;;;;;;;;;;372813;107;1960053;-72
2021/07/22 01:47:37;;;;;;;;;;;;;;;;;;379346;106;1959969;-72
2021/07/22 01:48:42;;;;;;;;;;;;;;;;;;376488;106;1961009;-72
2021/07/22 01:49:54;;;;;;;;;;;;;;;;;;397020;104;1960046;-72
2021/07/22 01:50:59;;;;;;;;;;;;;;;;;;370473;107;1961073;-71
2021/07/22 01:52:05;;;;;;;;;;;;;;;;;;365726;107;2839046;-72
2021/07/22 01:53:10;;;;;;;;;;;;;;;;;;338858;106;1961009;-72
2021/07/22 01:54:16;;;;;;;;;;;;;;;;;;326851;107;2086027;-72
2021/07/22 01:55:21;;;;;;;;;;;;;;;;;;345707;109;2397960;-71
2021/07/22 01:56:27;;;;;;;;;;;;;;;;;;374032;107;1959920;-72
2021/07/22 01:57:33;;;;;;;;;;;;;;;;;;362582;112;1959985;-72
2021/07/22 01:58:38;;;;;;;;;;;;;;;;;;365373;110;1961280;-73
2021/07/22 01:59:43;;;;;;;;;;;;;;;;;;371714;109;1959925;-72
2021/07/22 02:00:48;;;;;;;;;;;;;;;;;;371559;107;1959989;-72
2021/07/22 02:01:53;;;;;;;;;;;;;;;;;;372930;108;1960076;-71
2021/07/22 02:03:05;;;;;;;;;;;;;;;;;;390980;106;1960038;-73
2021/07/22 02:04:12;;;;;;;;;;;;;;;;;;337120;108;2432998;-73
2021/07/22 02:05:17;;;;;;;;;;;;;;;;;;343470;110;2347868;-72
2021/07/22 02:06:22;;;;;;;;;;;;;;;;;;310866;110;2127980;-72
2021/07/22 02:07:28;;;;;;;;;;;;;;;;;;367743;110;1959994;-73
2021/07/22 02:08:35;;;;;;;;;;;;;;;;;;363935;111;1960103;-71
2021/07/22 02:09:40;;;;;;;;;;;;;;;;;;365043;110;1960036;-72
2021/07/22 02:10:45;;;;;;;;;;;;;;;;;;368307;110;1960815;-72
2021/07/22 02:11:49;;;;;;;;;;;;;;;;;;368068;110;1959991;-73
2021/07/22 02:12:54;;;;;;;;;;;;;;;;;;370044;110;1961019;-72
2021/07/22 02:14:02;;;;;;;;;;;;;;;;;;368611;110;1960010;-72
2021/07/22 02:15:07;;;;;;;;;;;;;;;;;;366334;110;1961067;-72
2021/07/22 02:16:13;;;;;;;;;;;;;;;;;;330268;110;1965915;-71
2021/07/22 02:17:19;;;;;;;;;;;;;;;;;;316271;110;2080965;-72
2021/07/22 02:18:30;;;;;;;;;;;;;;;;;;398164;104;1960039;-70
2021/07/22 02:19:36;;;;;;;;;;;;;;;;;;379823;106;1959988;-73
2021/07/22 02:20:42;;;;;;;;;;;;;;;;;;381772;106;1959951;-73
2021/07/22 02:21:47;;;;;;;;;;;;;;;;;;380534;105;1959977;-73
2021/07/22 02:22:54;;;;;;;;;;;;;;;;;;354104;106;2393035;-72
2021/07/22 02:24:05;;;;;;;;;;;;;;;;;;398060;104;1960947;-73
2021/07/22 02:25:20;;;;;;;;;;;;;;;;;;379422;106;1962081;-72
2021/07/22 02:26:28;;;;;;;;;;;;;;;;;;384431;106;1959955;-73
2021/07/22 02:27:35;;;;;;;;;;;;;;;;;;374189;106;2938063;-72
2021/07/22 02:28:40;;;;;;;;;;;;;;;;;;364578;105;1960033;-71
2021/07/22 02:29:45;;;;;;;;;;;;;;;;;;364818;106;1960039;-70
2021/07/22 02:30:56;;;;;;;;;;;;;;;;;;396631;104;1959905;-72
2021/07/22 02:32:01;;;;;;;;;;;;;;;;;;380571;107;1959822;-73
2021/07/22 02:33:07;;;;;;;;;;;;;;;;;;379692;107;1959894;-72
2021/07/22 02:34:12;;;;;;;;;;;;;;;;;;378165;107;1960052;-70
2021/07/22 02:35:16;;;;;;;;;;;;;;;;;;375499;106;1959846;-72
2021/07/22 02:36:24;;;;;;;;;;;;;;;;;;368947;108;1959993;-73
2021/07/22 02:37:30;;;;;;;;;;;;;;;;;;345686;110;1961034;-73
2021/07/22 02:38:37;;;;;;;;;;;;;;;;;;358512;112;1960084;-73
2021/07/22 02:39:48;;;;;;;;;;;;;;;;;;398536;104;1960009;-72
2021/07/22 02:40:53;;;;;;;;;;;;;;;;;;379440;106;1959982;-72
2021/07/22 02:42:05;;;;;;;;;;;;;;;;;;372055;109;1959919;-73
2021/07/22 02:43:11;;;;;;;;;;;;;;;;;;346831;115;1960012;-72
2021/07/22 02:44:39;;;;;;;;;;;;;;;;;;355110;114;1959951;-73
2021/07/22 02:45:43;;;;;;;;;;;;;;;;;;352839;113;1959963;-72
2021/07/22 02:46:48;;;;;;;;;;;;;;;;;;347879;115;1960052;-73
2021/07/22 02:47:53;;;;;;;;;;;;;;;;;;342019;118;1959979;-72
2021/07/22 02:48:58;;;;;;;;;;;;;;;;;;348641;115;1960060;-71
2021/07/22 02:50:03;;;;;;;;;;;;;;;;;;347946;115;1960043;-74
2021/07/22 02:51:07;;;;;;;;;;;;;;;;;;348543;115;1960924;-72
2021/07/22 02:52:12;;;;;;;;;;;;;;;;;;342477;117;1959991;-72
2021/07/22 02:53:17;;;;;;;;;;;;;;;;;;343723;118;1959961;-72
2021/07/22 02:54:31;;;;;;;;;;;;;;;;;;347535;115;1959979;-73
2021/07/22 02:55:37;;;;;;;;;;;;;;;;;;332700;115;2839884;-73
2021/07/22 02:56:42;;;;;;;;;;;;;;;;;;324337;115;2351998;-74
2021/07/22 02:57:49;;;;;;;;;;;;;;;;;;348438;115;1959901;-71
2021/07/22 02:58:53;;;;;;;;;;;;;;;;;;346624;115;1960011;-74
2021/07/22 02:59:59;;;;;;;;;;;;;;;;;;349297;115;1960115;-74
2021/07/22 03:01:10;;;;;;;;;;;;;;;;;;389894;106;1959957;-74
2021/07/22 03:02:15;;;;;;;;;;;;;;;;;;373180;109;1960091;-74
2021/07/22 03:03:22;;;;;;;;;;;;;;;;;;363117;109;2945740;-74
2021/07/22 03:04:27;;;;;;;;;;;;;;;;;;365256;109;1959024;-73
2021/07/22 03:05:33;;;;;;;;;;;;;;;;;;345181;108;1960053;-73
2021/07/22 03:06:40;;;;;;;;;;;;;;;;;;373234;108;1959977;-72
2021/07/22 03:07:45;;;;;;;;;;;;;;;;;;373371;108;1959914;-72
2021/07/22 03:08:51;;;;;;;;;;;;;;;;;;373562;108;1958802;-73
2021/07/22 03:09:58;;;;;;;;;;;;;;;;;;372560;108;1959837;-72
2021/07/22 03:11:02;;;;;;;;;;;;;;;;;;365532;108;2929820;-73
2021/07/22 03:12:07;;;;;;;;;;;;;;;;;;373237;107;1959861;-73
2021/07/22 03:13:19;;;;;;;;;;;;;;;;;;363745;104;1963005;-73
2021/07/22 03:14:24;;;;;;;;;;;;;;;;;;325024;105;2066972;-73
2021/07/22 03:15:29;;;;;;;;;;;;;;;;;;330313;108;1988079;-72
2021/07/22 03:16:34;;;;;;;;;;;;;;;;;;345252;107;1960014;-72
2021/07/22 03:17:50;;;;;;;;;;;;;;;;;;372044;108;1959963;-73
2021/07/22 03:19:04;;;;;;;;;;;;;;;;;;335250;106;2142962;-73
2021/07/22 03:20:11;;;;;;;;;;;;;;;;;;374026;105;1960021;-72
2021/07/22 03:21:27;;;;;;;;;;;;;;;;;;373342;109;1959995;-73
2021/07/22 03:22:33;;;;;;;;;;;;;;;;;;352279;115;1960919;-73
2021/07/22 03:23:47;;;;;;;;;;;;;;;;;;398333;104;1960063;-73
2021/07/22 03:24:52;;;;;;;;;;;;;;;;;;378057;106;1961974;-73
2021/07/22 03:26:07;;;;;;;;;;;;;;;;;;368317;108;1959933;-72
2021/07/22 03:27:25;;;;;;;;;;;;;;;;;;362116;112;1959972;-73
2021/07/22 03:29:02;;;;;;;;;;;;;;;;;;353725;114;1960084;-72
2021/07/22 03:30:39;;;;;;;;;;;;;;;;;;362254;112;1961992;-73
2021/07/22 03:32:24;;;;;;;;;;;;;;;;;;362671;112;1959983;-73
2021/07/22 03:33:56;;;;;;;;;;;;;;;;;;328224;110;2499008;-73
2021/07/22 03:35:02;;;;;;;;;;;;;;;;;;356927;114;1959937;-73
2021/07/22 03:36:10;;;;;;;;;;;;;;;;;;354938;114;1961014;-73
2021/07/22 03:37:16;;;;;;;;;;;;;;;;;;347849;112;1960019;-72
2021/07/22 03:38:22;;;;;;;;;;;;;;;;;;344535;114;1960881;-72
2021/07/22 03:39:45;;;;;;;;;;;;;;;;;;356635;111;1960078;-72
2021/07/22 03:40:50;;;;;;;;;;;;;;;;;;359910;112;1960022;-71
2021/07/22 03:41:55;;;;;;;;;;;;;;;;;;362227;111;1960035;-72
2021/07/22 03:43:02;;;;;;;;;;;;;;;;;;348228;112;1960046;-73
2021/07/22 03:44:08;;;;;;;;;;;;;;;;;;363262;112;1959936;-73
2021/07/22 03:45:13;;;;;;;;;;;;;;;;;;362160;110;1960008;-72
2021/07/22 03:46:20;;;;;;;;;;;;;;;;;;357515;112;1959950;-73
2021/07/22 03:47:26;;;;;;;;;;;;;;;;;;356105;112;1961008;-72
2021/07/22 03:48:37;;;;;;;;;;;;;;;;;;342541;106;2101011;-71
2021/07/22 03:49:42;;;;;;;;;;;;;;;;;;305510;109;2208978;-72
2021/07/22 03:50:52;;;;;;;;;;;;;;;;;;305933;109;2155066;-72
2021/07/22 03:51:57;;;;;;;;;;;;;;;;;;292716;112;2264999;-73
2021/07/22 03:53:09;;;;;;;;;;;;;;;;;;395993;104;1959885;-73
2021/07/22 03:54:15;;;;;;;;;;;;;;;;;;379819;107;1959976;-72
2021/07/22 03:55:20;;;;;;;;;;;;;;;;;;372694;107;1960067;-72
2021/07/22 03:56:43;;;;;;;;;;;;;;;;;;354033;107;1959972;-73
2021/07/22 03:57:53;;;;;;;;;;;;;;;;;;328911;107;2794038;-73
2021/07/22 03:58:58;;;;;;;;;;;;;;;;;;348774;107;2417059;-72
2021/07/22 04:00:05;;;;;;;;;;;;;;;;;;377355;107;1960008;-74
2021/07/22 04:01:11;;;;;;;;;;;;;;;;;;377634;107;1960924;-73
2021/07/22 04:02:16;;;;;;;;;;;;;;;;;;376673;107;1959985;-72
2021/07/22 04:03:23;;;;;;;;;;;;;;;;;;378590;107;1959959;-74
2021/07/22 04:04:34;;;;;;;;;;;;;;;;;;356547;104;2018989;-72
2021/07/22 04:05:39;;;;;;;;;;;;;;;;;;337315;108;1960013;-73
2021/07/22 04:06:45;;;;;;;;;;;;;;;;;;370371;108;1960850;-72
2021/07/22 04:07:54;;;;;;;;;;;;;;;;;;297696;110;2230035;-74
2021/07/22 04:09:01;;;;;;;;;;;;;;;;;;364276;109;1960037;-73
2021/07/22 04:10:16;;;;;;;;;;;;;;;;;;334497;120;1960000;-75
2021/07/22 04:11:28;;;;;;;;;;;;;;;;;;399138;104;1960042;-73
2021/07/22 04:12:38;;;;;;;;;;;;;;;;;;367485;107;1959976;-75
2021/07/22 04:14:00;;;;;;;;;;;;;;;;;;364271;106;1959906;-73
2021/07/22 04:15:07;;;;;;;;;;;;;;;;;;375635;106;1960001;-74
2021/07/22 04:16:14;;;;;;;;;;;;;;;;;;362337;109;1960014;-72
2021/07/22 04:17:25;;;;;;;;;;;;;;;;;;352263;106;1998019;-72
2021/07/22 04:18:32;;;;;;;;;;;;;;;;;;359726;111;1960062;-72
2021/07/22 04:19:44;;;;;;;;;;;;;;;;;;372159;110;1961019;-73
2021/07/22 04:20:51;;;;;;;;;;;;;;;;;;348564;115;1960103;-73
2021/07/22 04:22:15;;;;;;;;;;;;;;;;;;355339;115;1960033;-73
2021/07/22 04:23:34;;;;;;;;;;;;;;;;;;349212;117;1959935;-72
2021/07/22 04:24:46;;;;;;;;;;;;;;;;;;351205;103;2713959;-73
2021/07/22 04:26:01;;;;;;;;;;;;;;;;;;367840;107;1961000;-73
2021/07/22 04:27:11;;;;;;;;;;;;;;;;;;327065;106;2059931;-73
2021/07/22 04:28:27;;;;;;;;;;;;;;;;;;366473;107;1960987;-72
2021/07/22 04:29:32;;;;;;;;;;;;;;;;;;376403;107;1960042;-73
2021/07/22 04:30:38;;;;;;;;;;;;;;;;;;379090;107;1960051;-71
2021/07/22 04:31:47;;;;;;;;;;;;;;;;;;371146;107;1959758;-72
2021/07/22 04:33:01;;;;;;;;;;;;;;;;;;376272;107;1959989;-72
2021/07/22 04:34:24;;;;;;;;;;;;;;;;;;377526;107;1960944;-73
2021/07/22 04:35:43;;;;;;;;;;;;;;;;;;349560;112;1959977;-73
2021/07/22 04:36:54;;;;;;;;;;;;;;;;;;399999;104;1959980;-73
2021/07/22 04:38:19;;;;;;;;;;;;;;;;;;385769;105;1960935;-70
2021/07/22 04:39:25;;;;;;;;;;;;;;;;;;381005;105;1959818;-73
2021/07/22 04:40:53;;;;;;;;;;;;;;;;;;334025;107;2649026;-73
2021/07/22 04:41:59;;;;;;;;;;;;;;;;;;363558;107;1959987;-71
2021/07/22 04:43:09;;;;;;;;;;;;;;;;;;351320;113;1960014;-72
2021/07/22 04:44:21;;;;;;;;;;;;;;;;;;389653;106;1960001;-71
2021/07/22 04:45:33;;;;;;;;;;;;;;;;;;318472;116;2430986;-73
2021/07/22 04:46:45;;;;;;;;;;;;;;;;;;401183;104;1960124;-73
2021/07/22 04:47:51;;;;;;;;;;;;;;;;;;379048;105;1960988;-72
2021/07/22 04:49:14;;;;;;;;;;;;;;;;;;324206;108;2704919;-72
2021/07/22 04:50:25;;;;;;;;;;;;;;;;;;394962;104;1960050;-73
2021/07/22 04:51:47;;;;;;;;;;;;;;;;;;353049;115;1960018;-71
2021/07/22 04:52:59;;;;;;;;;;;;;;;;;;355339;104;2645003;-73
2021/07/22 04:54:06;;;;;;;;;;;;;;;;;;378115;106;1960269;-73
2021/07/22 04:55:29;;;;;;;;;;;;;;;;;;344596;107;2509025;-70
2021/07/22 04:56:35;;;;;;;;;;;;;;;;;;344845;105;1959837;-73
2021/07/22 04:57:40;;;;;;;;;;;;;;;;;;331346;106;2020080;-70
2021/07/22 04:58:46;;;;;;;;;;;;;;;;;;377328;107;1960064;-72
2021/07/22 04:59:52;;;;;;;;;;;;;;;;;;376739;106;1960013;-74
2021/07/22 05:00:59;;;;;;;;;;;;;;;;;;378085;107;1960984;-73
2021/07/22 05:02:05;;;;;;;;;;;;;;;;;;363253;108;2847981;-72
2021/07/22 05:03:12;;;;;;;;;;;;;;;;;;365658;110;1960009;-75
2021/07/22 05:04:20;;;;;;;;;;;;;;;;;;364577;110;1961089;-71
2021/07/22 05:05:26;;;;;;;;;;;;;;;;;;364022;108;1959820;-73
2021/07/22 05:06:50;;;;;;;;;;;;;;;;;;362432;112;1959845;-73
2021/07/22 05:08:01;;;;;;;;;;;;;;;;;;362490;106;1958843;-73
2021/07/22 05:09:08;;;;;;;;;;;;;;;;;;367560;109;1959848;-73
2021/07/22 05:10:37;;;;;;;;;;;;;;;;;;345696;110;1959942;-73
2021/07/22 05:11:54;;;;;;;;;;;;;;;;;;386601;105;1958955;-73
2021/07/22 05:13:04;;;;;;;;;;;;;;;;;;371282;105;1959961;-73
2021/07/22 05:14:27;;;;;;;;;;;;;;;;;;307681;108;2188897;-72
2021/07/22 05:15:37;;;;;;;;;;;;;;;;;;349172;113;2851012;-72
2021/07/22 05:16:49;;;;;;;;;;;;;;;;;;401486;103;1959934;-74
2021/07/22 05:18:11;;;;;;;;;;;;;;;;;;364164;112;1959925;-72
2021/07/22 05:19:23;;;;;;;;;;;;;;;;;;377524;106;1960021;-73
2021/07/22 05:20:48;;;;;;;;;;;;;;;;;;303624;111;2197068;-74
2021/07/22 05:21:54;;;;;;;;;;;;;;;;;;366316;109;1960021;-73
2021/07/22 05:23:19;;;;;;;;;;;;;;;;;;363865;110;1959877;-74
2021/07/22 05:24:26;;;;;;;;;;;;;;;;;;365049;109;1960009;-72
2021/07/22 05:25:32;;;;;;;;;;;;;;;;;;363361;110;1959957;-72
2021/07/22 05:26:51;;;;;;;;;;;;;;;;;;365452;109;1960019;-72
2021/07/22 05:28:03;;;;;;;;;;;;;;;;;;395406;104;1959889;-74
2021/07/22 05:29:09;;;;;;;;;;;;;;;;;;358635;107;1960021;-73
2021/07/22 05:30:29;;;;;;;;;;;;;;;;;;322137;112;2591070;-74
2021/07/22 05:31:41;;;;;;;;;;;;;;;;;;398524;104;1960037;-73
2021/07/22 05:32:48;;;;;;;;;;;;;;;;;;380131;106;1960878;-75
2021/07/22 05:33:55;;;;;;;;;;;;;;;;;;361176;105;1960033;-73
2021/07/22 05:35:02;;;;;;;;;;;;;;;;;;373947;106;1960068;-73
2021/07/22 05:36:11;;;;;;;;;;;;;;;;;;370083;107;1960065;-73
2021/07/22 05:37:20;;;;;;;;;;;;;;;;;;348163;107;1960005;-71
2021/07/22 05:38:27;;;;;;;;;;;;;;;;;;373682;107;1960044;-72
2021/07/22 05:39:32;;;;;;;;;;;;;;;;;;373456;107;1959908;-72
2021/07/22 05:40:37;;;;;;;;;;;;;;;;;;374432;107;1960975;-73
2021/07/22 05:41:42;;;;;;;;;;;;;;;;;;371906;108;1959977;-72
2021/07/22 05:42:54;;;;;;;;;;;;;;;;;;397464;103;1960072;-73
2021/07/22 05:43:59;;;;;;;;;;;;;;;;;;377961;106;1959958;-72
2021/07/22 05:45:06;;;;;;;;;;;;;;;;;;378882;107;1960098;-73
2021/07/22 05:46:10;;;;;;;;;;;;;;;;;;367136;108;2931004;-72
2021/07/22 05:47:16;;;;;;;;;;;;;;;;;;373587;107;1961003;-73
2021/07/22 05:48:27;;;;;;;;;;;;;;;;;;333982;111;2059941;-74
2021/07/22 05:49:32;;;;;;;;;;;;;;;;;;293108;111;2231011;-71
2021/07/22 05:50:39;;;;;;;;;;;;;;;;;;356399;114;1961002;-73
2021/07/22 05:51:43;;;;;;;;;;;;;;;;;;352227;116;1959930;-73
2021/07/22 05:52:48;;;;;;;;;;;;;;;;;;357338;114;1959911;-73
2021/07/22 05:53:53;;;;;;;;;;;;;;;;;;358166;114;1959900;-74
2021/07/22 05:54:58;;;;;;;;;;;;;;;;;;325741;114;1961110;-74
2021/07/22 05:56:03;;;;;;;;;;;;;;;;;;320832;113;2377027;-74
2021/07/22 05:57:08;;;;;;;;;;;;;;;;;;329616;114;2415979;-73
2021/07/22 05:58:13;;;;;;;;;;;;;;;;;;323048;113;2520069;-73
2021/07/22 05:59:19;;;;;;;;;;;;;;;;;;332616;111;2396921;-74
2021/07/22 06:00:30;;;;;;;;;;;;;;;;;;390439;105;1959945;-74
2021/07/22 06:01:34;;;;;;;;;;;;;;;;;;374162;108;1959964;-73
2021/07/22 06:02:39;;;;;;;;;;;;;;;;;;356334;107;1961008;-73
2021/07/22 06:03:45;;;;;;;;;;;;;;;;;;370858;108;1961039;-74
2021/07/22 06:04:50;;;;;;;;;;;;;;;;;;370686;108;1959948;-73
2021/07/22 06:05:55;;;;;;;;;;;;;;;;;;352896;105;1959980;-73
2021/07/22 06:07:12;;;;;;;;;;;;;;;;;;397728;104;1960027;-73
2021/07/22 06:09:02;;;;;;;;;;;;;;;;;;338448;105;2022924;-75
2021/07/22 06:10:52;;;;;;;;;;;;;;;;;;314244;105;2173775;-75
2021/07/22 06:12:42;;;;;;;;;;;;;;;;;;372597;109;1960009;-75
2021/07/22 06:13:54;;;;;;;;;;;;;;;;;;371753;106;1959990;-76
2021/07/22 06:14:59;;;;;;;;;;;;;;;;;;372697;107;1958822;-76
2021/07/22 06:16:04;;;;;;;;;;;;;;;;;;369903;108;1958781;-74
2021/07/22 06:17:08;;;;;;;;;;;;;;;;;;371771;108;1958762;-75
2021/07/22 06:18:13;;;;;;;;;;;;;;;;;;370343;110;1959862;-75
2021/07/22 06:19:18;;;;;;;;;;;;;;;;;;369644;110;1959946;-75
2021/07/22 06:20:23;;;;;;;;;;;;;;;;;;369544;109;1958778;-75
2021/07/22 06:21:27;;;;;;;;;;;;;;;;;;351901;108;1958755;-75
2021/07/22 06:22:33;;;;;;;;;;;;;;;;;;305732;108;2230723;-75
2021/07/22 06:23:38;;;;;;;;;;;;;;;;;;307170;110;2226781;-75
2021/07/22 06:24:43;;;;;;;;;;;;;;;;;;340788;110;2417835;-74
2021/07/22 06:25:48;;;;;;;;;;;;;;;;;;341724;110;2448884;-74
2021/07/22 06:26:53;;;;;;;;;;;;;;;;;;336861;109;2526931;-76
2021/07/22 06:27:59;;;;;;;;;;;;;;;;;;341244;110;2440894;-74
2021/07/22 06:29:10;;;;;;;;;;;;;;;;;;399313;104;1958986;-75
2021/07/22 06:30:15;;;;;;;;;;;;;;;;;;373319;107;1958724;-75
2021/07/22 06:31:19;;;;;;;;;;;;;;;;;;358224;109;1960103;-75
2021/07/22 06:32:24;;;;;;;;;;;;;;;;;;329542;109;2024978;-75
2021/07/22 06:33:30;;;;;;;;;;;;;;;;;;344619;108;2424966;-76
2021/07/22 06:34:35;;;;;;;;;;;;;;;;;;329138;107;2040073;-76
2021/07/22 06:35:40;;;;;;;;;;;;;;;;;;305078;109;2249011;-75
2021/07/22 06:37:00;;;;;;;;;;;;;;;;;;338873;109;2562972;-76
2021/07/22 06:38:06;;;;;;;;;;;;;;;;;;283285;114;2321976;-75
2021/07/22 06:39:17;;;;;;;;;;;;;;;;;;397917;103;1960003;-75
2021/07/22 06:40:29;;;;;;;;;;;;;;;;;;374024;107;1960985;-75
2021/07/22 06:42:37;;;;;;;;;;;;;;;;;;375732;107;1960004;-75
2021/07/22 06:44:21;;;;;;;;;;;;;;;;;;374099;107;1959696;-76
2021/07/22 06:45:57;;;;;;;;;;;;;;;;;;369513;109;1959991;-76
2021/07/22 06:47:22;;;;;;;;;;;;;;;;;;308101;108;2227998;-74
2021/07/22 06:48:34;;;;;;;;;;;;;;;;;;396196;104;1960029;-75
2021/07/22 06:49:39;;;;;;;;;;;;;;;;;;378028;105;1960014;-75
2021/07/22 06:50:44;;;;;;;;;;;;;;;;;;381844;106;1959929;-75
2021/07/22 06:51:50;;;;;;;;;;;;;;;;;;382339;105;1960070;-74
2021/07/22 06:52:55;;;;;;;;;;;;;;;;;;380828;105;1959996;-75
2021/07/22 06:54:00;;;;;;;;;;;;;;;;;;380532;107;1959934;-74
2021/07/22 06:55:04;;;;;;;;;;;;;;;;;;382046;106;1960029;-75
2021/07/22 06:56:09;;;;;;;;;;;;;;;;;;369158;105;1960030;-75
2021/07/22 06:57:20;;;;;;;;;;;;;;;;;;397230;104;1959777;-74
2021/07/22 06:58:25;;;;;;;;;;;;;;;;;;380474;107;1959940;-74
2021/07/22 06:59:30;;;;;;;;;;;;;;;;;;356231;107;1960095;-74
2021/07/22 07:00:42;;;;;;;;;;;;;;;;;;304521;107;2293793;-74
2021/07/22 07:01:49;;;;;;;;;;;;;;;;;;390694;103;1959957;-75
2021/07/22 07:02:54;;;;;;;;;;;;;;;;;;389520;103;1959769;-76
2021/07/22 07:04:00;;;;;;;;;;;;;;;;;;389012;103;1960074;-75
2021/07/22 07:05:06;;;;;;;;;;;;;;;;;;387077;103;1959830;-75
2021/07/22 07:06:12;;;;;;;;;;;;;;;;;;383675;105;1959891;-75
2021/07/22 07:07:17;;;;;;;;;;;;;;;;;;383892;105;1959933;-75
2021/07/22 07:08:27;;;;;;;;;;;;;;;;;;376218;108;1960874;-75
2021/07/22 07:09:32;;;;;;;;;;;;;;;;;;366267;108;1959951;-75
2021/07/22 07:10:37;;;;;;;;;;;;;;;;;;325665;108;2111977;-75
2021/07/22 07:11:42;;;;;;;;;;;;;;;;;;346522;108;2474964;-75
2021/07/22 07:12:54;;;;;;;;;;;;;;;;;;396762;104;1959991;-75
2021/07/22 07:13:58;;;;;;;;;;;;;;;;;;380297;104;1959945;-74
2021/07/22 07:15:03;;;;;;;;;;;;;;;;;;325793;113;1959996;-75
2021/07/22 07:16:09;;;;;;;;;;;;;;;;;;321501;113;2587931;-75
2021/07/22 07:17:15;;;;;;;;;;;;;;;;;;354036;113;1960978;-74
2021/07/22 07:18:21;;;;;;;;;;;;;;;;;;357860;113;1959776;-76
2021/07/22 07:19:26;;;;;;;;;;;;;;;;;;356724;113;1959904;-76
2021/07/22 07:20:31;;;;;;;;;;;;;;;;;;355004;113;1960127;-75
2021/07/22 07:21:42;;;;;;;;;;;;;;;;;;402657;104;1959992;-75
2021/07/22 07:22:48;;;;;;;;;;;;;;;;;;374797;109;1959829;-75
2021/07/22 07:23:53;;;;;;;;;;;;;;;;;;377311;107;1959841;-74
2021/07/22 07:24:58;;;;;;;;;;;;;;;;;;373401;107;1960128;-74
2021/07/22 07:26:02;;;;;;;;;;;;;;;;;;364671;111;1961012;-75
2021/07/22 07:27:07;;;;;;;;;;;;;;;;;;363961;110;1959997;-76
2021/07/22 07:29:37;;;;;;;;;;;;;;;;;;317038;108;2428034;-76
2021/07/22 07:30:42;;;;;;;;;;;;;;;;;;306750;111;2226052;-77
2021/07/22 07:31:48;;;;;;;;;;;;;;;;;;366702;111;1961085;-75
2021/07/22 07:32:54;;;;;;;;;;;;;;;;;;367797;109;1959947;-76
2021/07/22 07:33:59;;;;;;;;;;;;;;;;;;372791;109;1959936;-75
2021/07/22 07:36:11;;;;;;;6.19;2.23;;;;;;;26.80;40.97;99126.28;396519;103;1984034;-76